Time;durP1;ratioP1;P1;durP2;ratioP2;P2;SDS_P1;SDS_P2;PMS_P1;PMS_P2;Temp;Humidity;BMP_temperature;BMP_pressure;BME280_temperature;BME280_humidity;BME280_pressure;Samples;Min_cycle;Max_cycle;Signal;HPM_P1;HPM_P2
2024/03/04 00:01:50;;;;;;;;;;;9.30;86.60;;;;;;5004236;28;83894;-44
2024/03/04 00:04:16;;;;;;;;;;;9.30;86.60;;;;;;5011716;28;81874;-45
2024/03/04 00:06:42;;;;;;;;;;;9.30;86.60;;;;;;5010666;28;82462;-43
2024/03/04 00:09:08;;;;;;;;;;;9.30;86.70;;;;;;5018910;28;81799;-43
2024/03/04 00:11:34;;;;;;;;;;;9.30;86.70;;;;;;4998898;28;82291;-45
2024/03/04 00:14:00;;;;;;;;;;;9.30;86.60;;;;;;5003875;28;82593;-43
2024/03/04 00:16:25;;;;;;;;;;;9.30;86.70;;;;;;5010207;28;82283;-43
2024/03/04 00:18:51;;;;;;;;;;;9.30;86.70;;;;;;5014024;28;81663;-43
2024/03/04 00:21:17;;;;;;;;;;;9.30;87.00;;;;;;5017908;28;82323;-45
2024/03/04 00:23:44;;;;;;;;;;;9.30;86.80;;;;;;5000682;28;82011;-44
2024/03/04 00:26:09;;;;;;;;;;;9.30;86.80;;;;;;5006464;28;82788;-43
2024/03/04 00:28:35;;;;;;;;;;;9.30;86.80;;;;;;5016355;28;82140;-43
2024/03/04 00:31:00;;;;;;;;;;;9.30;86.90;;;;;;5021092;28;82051;-43
2024/03/04 00:33:26;;;;;;;;;;;9.30;86.90;;;;;;4997786;28;82580;-45
2024/03/04 00:35:53;;;;;;;;;;;9.30;86.90;;;;;;5008170;28;82575;-44
2024/03/04 00:38:18;;;;;;;;;;;9.30;86.80;;;;;;5006494;28;82895;-44
2024/03/04 00:40:44;;;;;;;;;;;9.30;87.00;;;;;;5012491;28;82316;-44
2024/03/04 00:43:10;;;;;;;;;;;9.20;86.90;;;;;;5008571;28;81915;-43
2024/03/04 00:45:36;;;;;;;;;;;9.30;87.00;;;;;;5004141;28;82270;-45
2024/03/04 00:48:02;;;;;;;;;;;9.20;87.00;;;;;;5006370;28;83516;-45
2024/03/04 00:50:29;;;;;;;;;;;9.20;87.00;;;;;;5016820;28;83023;-43
2024/03/04 00:52:55;;;;;;;;;;;9.30;87.00;;;;;;5016949;28;83504;-44
2024/03/04 00:55:21;;;;;;;;;;;9.20;86.90;;;;;;5000179;28;82494;-44
2024/03/04 00:57:46;;;;;;;;;;;9.20;86.90;;;;;;5008456;28;81819;-44
2024/03/04 01:00:15;;;;;;;;;;;9.20;87.00;;;;;;5013875;28;82636;-45
2024/03/04 01:02:41;;;;;;;;;;;9.20;87.00;;;;;;5024474;28;82364;-43
2024/03/04 01:05:07;;;;;;;;;;;9.20;87.00;;;;;;5016783;28;82216;-43
2024/03/04 01:07:32;;;;;;;;;;;9.20;87.10;;;;;;5009736;28;82885;-44
2024/03/04 01:09:58;;;;;;;;;;;9.20;87.10;;;;;;5013525;28;81791;-44
2024/03/04 01:12:24;;;;;;;;;;;9.20;87.00;;;;;;5022259;28;81891;-44
2024/03/04 01:14:49;;;;;;;;;;;9.20;87.10;;;;;;5017208;28;82950;-44
2024/03/04 01:17:16;;;;;;;;;;;9.20;87.20;;;;;;5005438;28;83373;-44
2024/03/04 01:19:48;;;;;;;;;;;9.20;87.10;;;;;;5006126;28;82587;-43
2024/03/04 01:22:17;;;;;;;;;;;9.20;87.10;;;;;;5012683;28;81882;-43
2024/03/04 01:24:49;;;;;;;;;;;9.20;87.20;;;;;;5015722;28;82716;-43
2024/03/04 01:27:15;;;;;;;;;;;9.10;87.20;;;;;;5009785;28;84467;-44
2024/03/04 01:29:43;;;;;;;;;;;9.10;87.10;;;;;;5002549;28;82495;-43
2024/03/04 01:32:09;;;;;;;;;;;9.10;87.20;;;;;;5014094;28;82867;-44
2024/03/04 01:34:38;;;;;;;;;;;9.10;87.10;;;;;;5019288;28;82026;-43
2024/03/04 01:37:05;;;;;;;;;;;9.10;87.20;;;;;;5004742;28;82512;-43
2024/03/04 01:39:30;;;;;;;;;;;9.10;87.20;;;;;;5000852;28;83611;-43
2024/03/04 01:41:56;;;;;;;;;;;9.10;87.30;;;;;;5012598;28;82382;-44
2024/03/04 01:44:30;;;;;;;;;;;9.10;87.30;;;;;;5016224;28;81825;-43
2024/03/04 01:46:55;;;;;;;;;;;9.20;87.30;;;;;;5021019;28;82420;-44
2024/03/04 01:49:21;;;;;;;;;;;9.10;87.30;;;;;;5001947;28;82000;-43
2024/03/04 01:51:46;;;;;;;;;;;9.10;87.30;;;;;;5015364;28;81994;-44
2024/03/04 01:54:12;;;;;;;;;;;9.10;87.30;;;;;;5011251;28;82023;-43
2024/03/04 01:56:38;;;;;;;;;;;9.10;87.40;;;;;;5018468;28;83022;-44
2024/03/04 01:59:04;;;;;;;;;;;9.10;87.30;;;;;;5011595;28;82362;-44
2024/03/04 02:01:30;;;;;;;;;;;9.10;87.30;;;;;;5005696;28;81836;-45
2024/03/04 02:03:55;;;;;;;;;;;9.10;87.40;;;;;;5016700;28;82966;-43
2024/03/04 02:06:21;;;;;;;;;;;9.10;87.40;;;;;;5019018;28;82559;-43
2024/03/04 02:08:47;;;;;;;;;;;9.10;87.40;;;;;;5014067;28;81929;-43
2024/03/04 02:11:12;;;;;;;;;;;9.10;87.30;;;;;;5002550;28;82667;-44
2024/03/04 02:13:38;;;;;;;;;;;9.10;87.40;;;;;;5010599;28;83057;-44
2024/03/04 02:16:04;;;;;;;;;;;9.00;87.40;;;;;;5015547;28;83167;-44
2024/03/04 02:18:30;;;;;;;;;;;9.00;87.40;;;;;;5010984;28;82622;-43
2024/03/04 02:21:00;;;;;;;;;;;9.00;87.40;;;;;;5005659;28;81216;-44
2024/03/04 02:23:26;;;;;;;;;;;9.00;87.40;;;;;;5007310;28;81822;-44
2024/03/04 02:25:55;;;;;;;;;;;9.00;87.40;;;;;;5009893;28;82354;-43
2024/03/04 02:28:27;;;;;;;;;;;9.10;87.40;;;;;;5021525;28;83070;-43
2024/03/04 02:30:53;;;;;;;;;;;9.00;87.40;;;;;;5012122;28;83921;-44
2024/03/04 02:33:20;;;;;;;;;;;9.00;87.40;;;;;;5006401;28;82560;-45
2024/03/04 02:35:46;;;;;;;;;;;9.00;87.40;;;;;;5015008;28;82052;-45
2024/03/04 02:38:11;;;;;;;;;;;9.00;87.40;;;;;;5015048;28;81938;-44
2024/03/04 02:40:37;;;;;;;;;;;9.00;87.40;;;;;;5017550;28;82133;-44
2024/03/04 02:43:03;;;;;;;;;;;9.00;87.40;;;;;;4999095;28;82010;-43
2024/03/04 02:45:29;;;;;;;;;;;9.00;87.40;;;;;;5008748;28;83038;-43
2024/03/04 02:47:55;;;;;;;;;;;9.00;87.50;;;;;;5012049;28;82567;-44
2024/03/04 02:50:20;;;;;;;;;;;9.00;87.50;;;;;;5018921;28;82013;-43
2024/03/04 02:52:46;;;;;;;;;;;9.00;87.60;;;;;;5003565;28;84349;-44
2024/03/04 02:55:11;;;;;;;;;;;9.00;87.50;;;;;;5001307;28;82418;-43
2024/03/04 02:57:37;;;;;;;;;;;9.00;87.50;;;;;;5009072;28;82095;-44
2024/03/04 03:00:03;;;;;;;;;;;9.00;87.60;;;;;;5021698;28;81976;-44
2024/03/04 03:02:29;;;;;;;;;;;8.90;87.60;;;;;;5016825;28;83040;-44
2024/03/04 03:04:54;;;;;;;;;;;8.90;87.60;;;;;;5007420;28;82596;-43
2024/03/04 03:07:20;;;;;;;;;;;8.90;87.60;;;;;;5008580;28;81947;-43
2024/03/04 03:09:46;;;;;;;;;;;8.90;87.60;;;;;;5012420;28;82110;-43
2024/03/04 03:12:11;;;;;;;;;;;8.90;87.70;;;;;;5020590;28;82379;-45
2024/03/04 03:14:37;;;;;;;;;;;8.90;87.60;;;;;;5004646;28;82189;-44
2024/03/04 03:17:03;;;;;;;;;;;8.90;87.70;;;;;;5008075;28;82817;-44
2024/03/04 03:19:28;;;;;;;;;;;8.90;87.70;;;;;;5009456;28;81957;-44
2024/03/04 03:21:55;;;;;;;;;;;8.90;87.70;;;;;;5018898;28;82167;-43
2024/03/04 03:24:22;;;;;;;;;;;8.90;87.70;;;;;;5006509;28;83757;-44
2024/03/04 03:26:49;;;;;;;;;;;8.90;87.70;;;;;;5002448;28;81957;-44
2024/03/04 03:29:15;;;;;;;;;;;8.90;87.70;;;;;;5009867;28;81870;-43
2024/03/04 03:31:40;;;;;;;;;;;8.90;87.70;;;;;;5016132;28;82415;-44
2024/03/04 03:34:06;;;;;;;;;;;8.90;87.80;;;;;;5019871;28;81202;-43
2024/03/04 03:36:32;;;;;;;;;;;8.90;87.80;;;;;;5007126;28;81990;-44
2024/03/04 03:38:57;;;;;;;;;;;8.90;87.70;;;;;;5008211;28;81943;-44
2024/03/04 03:41:23;;;;;;;;;;;8.90;87.70;;;;;;5004768;28;82974;-43
2024/03/04 03:43:49;;;;;;;;;;;8.90;87.70;;;;;;5011646;28;83351;-43
2024/03/04 03:46:14;;;;;;;;;;;8.90;87.80;;;;;;5011779;28;82016;-44
2024/03/04 03:48:43;;;;;;;;;;;8.90;87.80;;;;;;5002825;28;83658;-43
2024/03/04 03:51:08;;;;;;;;;;;8.90;87.90;;;;;;5009764;28;82667;-44
2024/03/04 03:53:34;;;;;;;;;;;8.90;87.90;;;;;;5015132;28;81908;-44
2024/03/04 03:56:02;;;;;;;;;;;8.90;87.90;;;;;;5007195;28;82905;-43
2024/03/04 03:58:28;;;;;;;;;;;8.80;87.80;;;;;;4999078;28;81625;-44
2024/03/04 04:00:53;;;;;;;;;;;8.80;87.80;;;;;;5011572;28;82098;-44
2024/03/04 04:03:21;;;;;;;;;;;8.80;87.80;;;;;;5016063;28;81876;-43
2024/03/04 04:05:47;;;;;;;;;;;8.80;87.80;;;;;;5020666;28;82752;-43
2024/03/04 04:08:12;;;;;;;;;;;8.90;87.90;;;;;;5003107;28;82550;-44
2024/03/04 04:10:38;;;;;;;;;;;8.80;87.90;;;;;;5001196;28;82895;-43
2024/03/04 04:13:04;;;;;;;;;;;8.80;87.90;;;;;;5010183;28;82011;-45
2024/03/04 04:15:29;;;;;;;;;;;8.80;87.90;;;;;;5004530;28;82649;-45
2024/03/04 04:17:55;;;;;;;;;;;8.80;87.90;;;;;;5007578;28;82508;-44
2024/03/04 04:20:20;;;;;;;;;;;8.80;88.00;;;;;;4998834;28;82003;-43
2024/03/04 04:22:46;;;;;;;;;;;8.80;88.00;;;;;;5006465;28;81861;-43
2024/03/04 04:25:13;;;;;;;;;;;8.80;87.90;;;;;;5009614;28;82285;-44
2024/03/04 04:27:39;;;;;;;;;;;8.80;88.00;;;;;;5013855;28;82867;-43
2024/03/04 04:30:06;;;;;;;;;;;8.80;88.00;;;;;;4996005;28;84388;-44
2024/03/04 04:32:32;;;;;;;;;;;8.80;88.00;;;;;;5005872;28;82031;-44
2024/03/04 04:34:58;;;;;;;;;;;8.80;88.00;;;;;;5014234;28;82928;-44
2024/03/04 04:37:23;;;;;;;;;;;8.80;88.00;;;;;;5015513;27;82430;-43
2024/03/04 04:39:49;;;;;;;;;;;8.80;88.10;;;;;;5009521;28;81881;-43
2024/03/04 04:42:15;;;;;;;;;;;8.80;88.10;;;;;;5002867;28;82280;-45
2024/03/04 04:44:41;;;;;;;;;;;8.80;88.10;;;;;;5009038;28;83961;-44
2024/03/04 04:47:06;;;;;;;;;;;8.80;88.10;;;;;;5012601;28;81929;-43
2024/03/04 04:49:32;;;;;;;;;;;8.80;88.10;;;;;;5018141;28;81892;-43
2024/03/04 04:51:57;;;;;;;;;;;8.70;88.00;;;;;;4998468;28;82056;-43
2024/03/04 04:54:23;;;;;;;;;;;8.80;88.10;;;;;;5004690;28;82846;-44
2024/03/04 04:56:50;;;;;;;;;;;8.80;88.10;;;;;;5003823;28;82257;-43
2024/03/04 04:59:16;;;;;;;;;;;8.80;88.10;;;;;;5014954;28;81975;-43
2024/03/04 05:01:42;;;;;;;;;;;8.70;88.00;;;;;;5000551;28;82618;-44
2024/03/04 05:04:07;;;;;;;;;;;8.70;88.10;;;;;;5001855;28;82964;-44
2024/03/04 05:06:34;;;;;;;;;;;8.70;88.10;;;;;;5009475;28;81765;-43
2024/03/04 05:08:59;;;;;;;;;;;8.70;88.10;;;;;;5007444;28;82931;-44
2024/03/04 05:11:26;;;;;;;;;;;8.70;88.10;;;;;;5001312;28;83011;-43
2024/03/04 05:13:52;;;;;;;;;;;8.70;88.10;;;;;;5004024;28;82295;-43
2024/03/04 05:16:18;;;;;;;;;;;8.70;88.10;;;;;;5004425;28;82787;-46
2024/03/04 05:18:43;;;;;;;;;;;8.70;88.10;;;;;;5005733;28;82888;-43
2024/03/04 05:21:09;;;;;;;;;;;8.70;88.20;;;;;;5002924;28;83450;-43
2024/03/04 05:23:35;;;;;;;;;;;8.70;88.20;;;;;;4999418;28;81969;-44
2024/03/04 05:26:01;;;;;;;;;;;8.70;88.20;;;;;;5007972;28;82027;-45
2024/03/04 05:28:27;;;;;;;;;;;8.70;88.20;;;;;;5009024;28;82421;-43
2024/03/04 05:30:53;;;;;;;;;;;8.70;88.20;;;;;;5008448;28;81999;-43
2024/03/04 05:33:19;;;;;;;;;;;8.70;88.20;;;;;;5006058;28;82058;-43
2024/03/04 05:35:45;;;;;;;;;;;8.70;88.20;;;;;;5000181;28;81939;-44
2024/03/04 05:38:10;;;;;;;;;;;8.70;88.20;;;;;;5002988;28;81991;-43
2024/03/04 05:40:36;;;;;;;;;;;8.70;88.30;;;;;;5005319;28;82050;-43
2024/03/04 05:43:03;;;;;;;;;;;8.70;88.30;;;;;;5009318;28;83577;-44
2024/03/04 05:45:28;;;;;;;;;;;8.70;88.30;;;;;;5002392;28;81980;-44
2024/03/04 05:47:54;;;;;;;;;;;8.70;88.30;;;;;;5007473;28;82837;-45
2024/03/04 05:50:20;;;;;;;;;;;8.70;88.30;;;;;;5012586;28;82013;-43
2024/03/04 05:52:46;;;;;;;;;;;8.70;88.90;;;;;;5015388;28;82269;-44
2024/03/04 05:55:11;;;;;;;;;;;8.70;88.30;;;;;;5006900;28;82557;-43
2024/03/04 05:57:37;;;;;;;;;;;8.70;88.30;;;;;;5002615;28;81899;-44
2024/03/04 06:00:03;;;;;;;;;;;8.70;88.40;;;;;;5006814;28;82774;-44
2024/03/04 06:02:32;;;;;;;;;;;8.70;88.40;;;;;;5011912;28;83649;-43
2024/03/04 06:04:57;;;;;;;;;;;8.70;88.40;;;;;;5021153;28;81925;-44
2024/03/04 06:07:23;;;;;;;;;;;8.70;88.40;;;;;;5003396;28;82957;-43
2024/03/04 06:09:48;;;;;;;;;;;8.70;88.40;;;;;;5005573;28;83361;-43
2024/03/04 06:12:14;;;;;;;;;;;8.70;88.30;;;;;;5009948;28;81831;-44
2024/03/04 06:14:39;;;;;;;;;;;8.70;88.30;;;;;;5017786;28;82266;-44
2024/03/04 06:17:08;;;;;;;;;;;8.70;88.20;;;;;;5005756;28;82016;-45
2024/03/04 06:19:33;;;;;;;;;;;8.70;88.20;;;;;;5000102;28;82848;-44
2024/03/04 06:21:59;;;;;;;;;;;8.70;88.20;;;;;;5011963;28;83324;-43
2024/03/04 06:24:25;;;;;;;;;;;8.70;88.20;;;;;;5015946;28;81744;-43
2024/03/04 06:26:50;;;;;;;;;;;8.70;88.20;;;;;;5006925;28;82627;-43
2024/03/04 06:29:17;;;;;;;;;;;8.70;88.20;;;;;;4999301;28;82481;-44
2024/03/04 06:31:43;;;;;;;;;;;8.70;88.20;;;;;;5007580;28;82828;-44
2024/03/04 06:34:08;;;;;;;;;;;8.70;88.20;;;;;;5009213;28;81958;-44
2024/03/04 06:36:34;;;;;;;;;;;8.70;88.10;;;;;;5009459;28;81941;-44
2024/03/04 06:38:59;;;;;;;;;;;8.70;88.20;;;;;;5001167;28;82233;-44
2024/03/04 06:41:25;;;;;;;;;;;8.70;88.10;;;;;;5002264;28;82570;-43
2024/03/04 06:43:51;;;;;;;;;;;8.70;88.10;;;;;;5005834;28;82013;-43
2024/03/04 06:46:16;;;;;;;;;;;8.80;88.10;;;;;;5011068;28;82532;-44
2024/03/04 06:48:42;;;;;;;;;;;8.70;88.10;;;;;;5002139;28;81989;-44
2024/03/04 06:51:07;;;;;;;;;;;8.70;88.20;;;;;;4999998;28;81984;-43
2024/03/04 06:53:34;;;;;;;;;;;8.70;88.30;;;;;;5003672;28;81933;-43
2024/03/04 06:55:59;;;;;;;;;;;8.70;88.20;;;;;;5000152;28;82936;-43
2024/03/04 06:58:25;;;;;;;;;;;8.70;88.30;;;;;;5014038;28;84868;-43
2024/03/04 07:00:51;;;;;;;;;;;8.70;88.10;;;;;;4999733;28;82499;-43
2024/03/04 07:03:17;;;;;;;;;;;8.70;88.10;;;;;;5006255;28;82002;-47
2024/03/04 07:05:42;;;;;;;;;;;8.80;88.10;;;;;;4997908;28;81946;-43
2024/03/04 07:08:08;;;;;;;;;;;8.80;88.00;;;;;;5009966;28;85247;-44
2024/03/04 07:10:34;;;;;;;;;;;8.80;87.90;;;;;;5003314;28;81887;-44
2024/03/04 07:13:01;;;;;;;;;;;8.80;87.90;;;;;;5003778;28;82863;-44
2024/03/04 07:15:26;;;;;;;;;;;8.80;88.00;;;;;;5003031;28;81992;-43
2024/03/04 07:17:52;;;;;;;;;;;8.80;87.90;;;;;;5016571;28;82676;-43
2024/03/04 07:20:18;;;;;;;;;;;8.80;87.90;;;;;;5020547;28;83569;-44
2024/03/04 07:22:43;;;;;;;;;;;8.80;87.90;;;;;;5000309;28;81977;-43
2024/03/04 07:25:09;;;;;;;;;;;8.80;88.00;;;;;;5001935;28;81850;-43
2024/03/04 07:27:34;;;;;;;;;;;8.80;88.00;;;;;;5012580;28;83405;-44
2024/03/04 07:30:00;;;;;;;;;;;8.80;88.10;;;;;;5015097;28;82695;-43
2024/03/04 07:32:27;;;;;;;;;;;8.90;88.10;;;;;;5007727;28;82658;-44
2024/03/04 07:34:53;;;;;;;;;;;8.80;87.90;;;;;;5006048;28;82653;-42
2024/03/04 07:37:18;;;;;;;;;;;8.90;87.90;;;;;;5008449;28;81713;-44
2024/03/04 07:39:44;;;;;;;;;;;8.80;87.90;;;;;;5009461;28;82267;-44
2024/03/04 07:42:09;;;;;;;;;;;8.80;88.00;;;;;;5003314;28;81970;-43
2024/03/04 07:44:39;;;;;;;;;;;8.90;88.00;;;;;;5003127;28;83164;-44
2024/03/04 07:47:05;;;;;;;;;;;8.90;88.10;;;;;;5010168;28;82500;-44
2024/03/04 07:49:30;;;;;;;;;;;8.90;88.00;;;;;;5007283;28;82055;-43
2024/03/04 07:51:56;;;;;;;;;;;8.90;88.20;;;;;;5003874;28;82067;-43
2024/03/04 07:54:21;;;;;;;;;;;8.90;88.00;;;;;;4998317;28;83199;-43
2024/03/04 07:56:47;;;;;;;;;;;8.90;88.10;;;;;;5013045;28;82032;-44
2024/03/04 07:59:12;;;;;;;;;;;8.90;88.10;;;;;;5007181;28;83457;-43
2024/03/04 08:01:45;;;;;;;;;;;8.90;88.20;;;;;;5009908;28;82931;-44
2024/03/04 08:04:10;;;;;;;;;;;8.90;88.10;;;;;;4996141;28;82247;-44
2024/03/04 08:06:37;;;;;;;;;;;8.90;88.20;;;;;;5006759;28;81943;-44
2024/03/04 08:09:05;;;;;;;;;;;8.90;88.00;;;;;;5000814;28;82870;-43
2024/03/04 08:11:30;;;;;;;;;;;8.90;88.20;;;;;;5005430;28;83072;-44
2024/03/04 08:13:56;;;;;;;;;;;9.00;88.30;;;;;;5019671;28;83556;-44
2024/03/04 08:16:22;;;;;;;;;;;8.90;88.30;;;;;;5002269;28;81893;-43
2024/03/04 08:18:47;;;;;;;;;;;8.90;88.30;;;;;;5006252;28;82197;-43
2024/03/04 08:21:14;;;;;;;;;;;8.90;88.30;;;;;;5004010;28;81993;-44
2024/03/04 08:23:40;;;;;;;;;;;8.90;88.30;;;;;;5014413;28;82916;-43
2024/03/04 08:26:06;;;;;;;;;;;8.90;88.40;;;;;;5005657;28;82711;-45
2024/03/04 08:28:31;;;;;;;;;;;8.90;88.40;;;;;;5001214;28;82769;-44
2024/03/04 08:30:57;;;;;;;;;;;8.90;88.40;;;;;;5002477;28;82004;-45
2024/03/04 08:33:23;;;;;;;;;;;9.00;88.60;;;;;;5014946;28;83391;-43
2024/03/04 08:35:48;;;;;;;;;;;9.00;88.60;;;;;;5014585;28;81934;-44
2024/03/04 08:38:14;;;;;;;;;;;9.00;88.60;;;;;;4996448;28;82122;-44
2024/03/04 08:40:40;;;;;;;;;;;9.00;88.60;;;;;;5004685;28;81707;-44
2024/03/04 08:43:06;;;;;;;;;;;9.00;88.70;;;;;;5013581;28;82312;-43
2024/03/04 08:45:31;;;;;;;;;;;9.00;88.80;;;;;;5011091;28;83572;-43
2024/03/04 08:47:57;;;;;;;;;;;9.00;88.80;;;;;;4999862;28;82759;-44
2024/03/04 08:50:22;;;;;;;;;;;9.00;88.80;;;;;;5005005;28;81826;-43
2024/03/04 08:52:48;;;;;;;;;;;9.00;88.90;;;;;;5010210;28;82510;-43
2024/03/04 08:55:13;;;;;;;;;;;9.00;89.10;;;;;;5011100;28;82021;-43
2024/03/04 08:57:39;;;;;;;;;;;9.00;89.00;;;;;;5007837;28;84655;-44
2024/03/04 09:00:07;;;;;;;;;;;9.00;89.10;;;;;;5002927;28;83057;-44
2024/03/04 09:02:33;;;;;;;;;;;9.10;89.30;;;;;;5014311;28;82122;-43
2024/03/04 09:04:58;;;;;;;;;;;9.00;89.20;;;;;;5004121;28;82207;-44
2024/03/04 09:07:27;;;;;;;;;;;9.00;89.40;;;;;;5006783;28;82283;-43
2024/03/04 09:09:54;;;;;;;;;;;9.00;89.30;;;;;;4997728;28;82678;-44
2024/03/04 09:12:20;;;;;;;;;;;9.10;89.40;;;;;;5002573;28;81787;-46
2024/03/04 09:14:45;;;;;;;;;;;9.10;89.40;;;;;;5008353;28;81260;-44
2024/03/04 09:17:11;;;;;;;;;;;9.10;89.40;;;;;;5007416;28;82178;-44
2024/03/04 09:19:41;;;;;;;;;;;9.10;89.50;;;;;;5002938;28;82829;-44
2024/03/04 09:22:07;;;;;;;;;;;9.10;89.50;;;;;;5010434;28;82975;-44
2024/03/04 09:24:33;;;;;;;;;;;9.10;89.60;;;;;;5010393;28;82689;-44
2024/03/04 09:26:58;;;;;;;;;;;9.10;89.50;;;;;;5008596;28;83027;-43
2024/03/04 09:29:24;;;;;;;;;;;9.10;89.60;;;;;;5008672;28;81841;-44
2024/03/04 09:31:50;;;;;;;;;;;9.10;89.70;;;;;;5004418;28;83038;-45
2024/03/04 09:34:16;;;;;;;;;;;9.10;89.80;;;;;;5010673;28;82623;-45
2024/03/04 09:36:42;;;;;;;;;;;9.10;89.80;;;;;;5010676;28;82941;-44
2024/03/04 09:39:08;;;;;;;;;;;9.20;89.80;;;;;;5013362;28;81921;-45
2024/03/04 09:41:37;;;;;;;;;;;9.20;89.90;;;;;;5007663;28;82078;-43
2024/03/04 09:44:03;;;;;;;;;;;9.20;89.80;;;;;;5008467;28;82741;-43
2024/03/04 09:46:30;;;;;;;;;;;9.20;89.90;;;;;;5003200;28;82855;-44
2024/03/04 09:48:56;;;;;;;;;;;9.20;89.80;;;;;;5013884;28;83835;-44
2024/03/04 09:51:23;;;;;;;;;;;9.20;89.90;;;;;;5007360;28;82291;-44
2024/03/04 09:53:50;;;;;;;;;;;9.20;90.00;;;;;;5006545;28;82010;-44
2024/03/04 09:56:16;;;;;;;;;;;9.30;90.00;;;;;;5006962;28;82942;-44
2024/03/04 09:58:42;;;;;;;;;;;9.30;90.00;;;;;;5014064;28;82392;-43
2024/03/04 10:01:08;;;;;;;;;;;9.30;90.00;;;;;;5018838;28;81933;-43
2024/03/04 10:03:34;;;;;;;;;;;9.30;90.00;;;;;;5005783;28;81979;-43
2024/03/04 10:06:01;;;;;;;;;;;9.30;90.00;;;;;;5011512;28;82853;-44
2024/03/04 10:08:27;;;;;;;;;;;9.30;90.00;;;;;;5012336;28;83341;-44
2024/03/04 10:10:53;;;;;;;;;;;9.30;90.00;;;;;;5013323;28;84054;-45
2024/03/04 10:13:21;;;;;;;;;;;9.30;90.00;;;;;;5002186;28;81998;-46
2024/03/04 10:15:47;;;;;;;;;;;9.40;90.00;;;;;;5004342;28;81940;-43
2024/03/04 10:18:12;;;;;;;;;;;9.40;90.10;;;;;;5014060;28;82605;-44
2024/03/04 10:20:38;;;;;;;;;;;9.40;90.10;;;;;;5021594;28;81877;-44
2024/03/04 10:23:04;;;;;;;;;;;9.40;90.10;;;;;;5000505;28;82799;-44
2024/03/04 10:25:30;;;;;;;;;;;9.40;90.00;;;;;;5004514;28;83861;-44
2024/03/04 10:27:55;;;;;;;;;;;9.50;90.10;;;;;;5014295;28;81382;-44
2024/03/04 10:30:22;;;;;;;;;;;9.50;90.10;;;;;;5012099;28;82634;-44
2024/03/04 10:32:48;;;;;;;;;;;9.50;90.00;;;;;;5003096;28;82149;-44
2024/03/04 10:35:15;;;;;;;;;;;9.50;90.00;;;;;;5001035;28;82987;-44
2024/03/04 10:37:40;;;;;;;;;;;9.50;90.10;;;;;;5011286;28;82418;-45
2024/03/04 10:40:09;;;;;;;;;;;9.50;90.20;;;;;;5006013;28;82007;-44
2024/03/04 10:42:35;;;;;;;;;;;9.50;90.00;;;;;;5003131;28;82731;-44
2024/03/04 10:45:01;;;;;;;;;;;9.60;90.00;;;;;;5005844;28;83418;-45
2024/03/04 10:47:27;;;;;;;;;;;9.60;90.10;;;;;;5017516;28;81981;-44
2024/03/04 10:49:53;;;;;;;;;;;9.60;90.00;;;;;;5007029;28;82620;-44
2024/03/04 10:52:19;;;;;;;;;;;9.60;90.00;;;;;;5005926;28;81241;-47
2024/03/04 10:54:45;;;;;;;;;;;9.70;90.00;;;;;;5012450;28;82209;-44
2024/03/04 10:57:14;;;;;;;;;;;9.70;90.20;;;;;;5018309;28;85178;-43
2024/03/04 10:59:41;;;;;;;;;;;9.70;90.00;;;;;;5010970;28;82972;-43
2024/03/04 11:02:10;;;;;;;;;;;9.70;89.80;;;;;;5000274;28;82824;-44
2024/03/04 11:04:37;;;;;;;;;;;9.70;90.00;;;;;;5013419;28;82876;-45
2024/03/04 11:07:05;;;;;;;;;;;9.80;89.90;;;;;;5020758;28;82117;-45
2024/03/04 11:09:31;;;;;;;;;;;9.80;89.90;;;;;;5008457;28;83042;-43
2024/03/04 11:12:00;;;;;;;;;;;9.80;89.90;;;;;;5004241;28;82639;-44
2024/03/04 11:14:33;;;;;;;;;;;9.80;89.90;;;;;;5003754;28;82069;-43
2024/03/04 11:17:00;;;;;;;;;;;9.80;90.00;;;;;;5014975;28;81866;-44
2024/03/04 11:19:27;;;;;;;;;;;9.80;90.10;;;;;;4999672;28;81906;-43
2024/03/04 11:21:53;;;;;;;;;;;9.80;90.00;;;;;;5002767;28;82857;-44
2024/03/04 11:24:19;;;;;;;;;;;9.90;90.00;;;;;;5000801;28;84521;-43
2024/03/04 11:26:45;;;;;;;;;;;9.90;89.80;;;;;;5013581;28;82472;-43
2024/03/04 11:29:11;;;;;;;;;;;9.90;89.90;;;;;;5000242;28;82841;-44
2024/03/04 11:31:37;;;;;;;;;;;9.90;90.20;;;;;;5006129;28;82349;-45
2024/03/04 11:34:03;;;;;;;;;;;10.00;89.80;;;;;;5008567;28;81919;-44
2024/03/04 11:36:29;;;;;;;;;;;10.00;89.90;;;;;;5007741;28;83581;-44
2024/03/04 11:38:55;;;;;;;;;;;10.00;89.70;;;;;;5002651;28;82542;-45
2024/03/04 11:42:00;;;;;;;;;;;10.00;89.70;;;;;;5011871;28;82077;-45
2024/03/04 11:44:29;;;;;;;;;;;10.10;89.70;;;;;;4988609;28;82592;-44
2024/03/04 11:46:56;;;;;;;;;;;10.10;89.70;;;;;;4993660;28;81974;-44
2024/03/04 11:49:24;;;;;;;;;;;10.10;89.70;;;;;;4993901;28;83007;-44
2024/03/04 11:51:56;;;;;;;;;;;10.10;89.50;;;;;;5016436;28;83268;-44
2024/03/04 11:54:29;;;;;;;;;;;10.10;89.40;;;;;;5005350;28;82201;-44
2024/03/04 11:56:55;;;;;;;;;;;10.20;89.30;;;;;;5003763;28;82293;-44
2024/03/04 11:59:21;;;;;;;;;;;10.20;89.40;;;;;;5007771;28;81948;-44
2024/03/04 12:01:49;;;;;;;;;;;10.20;89.30;;;;;;4999375;28;81957;-45
2024/03/04 12:04:15;;;;;;;;;;;10.20;89.30;;;;;;5016037;28;82341;-44
2024/03/04 12:06:42;;;;;;;;;;;10.30;89.40;;;;;;5000570;28;81167;-44
2024/03/04 12:09:08;;;;;;;;;;;10.30;89.40;;;;;;5004800;28;81917;-44
2024/03/04 12:11:34;;;;;;;;;;;10.30;89.80;;;;;;5008394;28;82260;-45
2024/03/04 12:14:00;;;;;;;;;;;10.30;89.50;;;;;;5012111;28;82767;-45
2024/03/04 12:16:26;;;;;;;;;;;10.30;89.50;;;;;;5017949;28;83343;-45
2024/03/04 12:18:51;;;;;;;;;;;10.30;90.00;;;;;;5003392;28;83106;-45
2024/03/04 12:21:19;;;;;;;;;;;10.30;89.90;;;;;;4996778;28;82795;-44
2024/03/04 12:23:45;;;;;;;;;;;10.30;89.90;;;;;;5005445;28;82551;-44
2024/03/04 12:26:11;;;;;;;;;;;10.30;89.60;;;;;;5009976;28;82866;-45
2024/03/04 12:28:38;;;;;;;;;;;10.40;89.50;;;;;;5005517;28;82699;-43
2024/03/04 12:31:13;;;;;;;;;;;10.40;89.60;;;;;;5006705;28;83368;-44
2024/03/04 12:33:39;;;;;;;;;;;10.40;89.40;;;;;;5004153;28;82593;-45
2024/03/04 12:36:08;;;;;;;;;;;10.50;90.00;;;;;;5008289;28;82359;-44
2024/03/04 12:38:33;;;;;;;;;;;10.50;89.30;;;;;;5010985;28;84526;-44
2024/03/04 12:40:59;;;;;;;;;;;10.50;89.50;;;;;;4996853;28;82672;-44
2024/03/04 12:43:25;;;;;;;;;;;10.50;89.60;;;;;;5001458;28;82756;-45
2024/03/04 12:45:50;;;;;;;;;;;10.50;89.30;;;;;;5012791;28;82931;-44
2024/03/04 12:48:20;;;;;;;;;;;10.50;89.10;;;;;;5007172;28;83193;-43
2024/03/04 12:50:46;;;;;;;;;;;10.50;89.20;;;;;;4997276;28;82574;-43
2024/03/04 12:53:14;;;;;;;;;;;10.60;88.60;;;;;;5005746;28;82291;-44
2024/03/04 12:55:41;;;;;;;;;;;10.60;88.60;;;;;;5012549;28;83093;-44
2024/03/04 12:58:07;;;;;;;;;;;10.60;88.70;;;;;;5006379;28;83594;-45
2024/03/04 13:00:33;;;;;;;;;;;10.70;88.70;;;;;;5007518;28;82538;-44
2024/03/04 13:02:59;;;;;;;;;;;10.70;89.00;;;;;;5001910;28;83559;-44
2024/03/04 13:05:24;;;;;;;;;;;10.60;89.00;;;;;;5007358;28;82214;-45
2024/03/04 13:07:50;;;;;;;;;;;10.70;89.20;;;;;;5015263;28;83034;-45
2024/03/04 13:10:15;;;;;;;;;;;10.70;89.10;;;;;;5010980;28;82362;-44
2024/03/04 13:12:42;;;;;;;;;;;10.70;89.10;;;;;;5005584;28;82416;-44
2024/03/04 13:15:08;;;;;;;;;;;10.70;89.30;;;;;;5007785;28;82953;-44
2024/03/04 13:17:38;;;;;;;;;;;10.70;89.30;;;;;;5009157;28;83423;-44
2024/03/04 13:20:11;;;;;;;;;;;10.70;89.40;;;;;;4996333;28;81936;-44
2024/03/04 13:22:40;;;;;;;;;;;10.70;89.30;;;;;;5010333;28;82341;-44
2024/03/04 13:25:06;;;;;;;;;;;10.80;89.30;;;;;;5013420;28;82405;-45
2024/03/04 13:27:36;;;;;;;;;;;10.80;89.20;;;;;;5009320;28;84012;-44
2024/03/04 13:30:02;;;;;;;;;;;10.80;89.30;;;;;;5002265;28;82553;-44
2024/03/04 13:32:28;;;;;;;;;;;10.80;89.20;;;;;;5008200;28;82842;-44
2024/03/04 13:34:53;;;;;;;;;;;10.80;89.20;;;;;;5012345;28;82229;-45
2024/03/04 13:37:19;;;;;;;;;;;10.80;89.20;;;;;;5015642;28;82509;-43
2024/03/04 13:39:44;;;;;;;;;;;10.90;89.20;;;;;;5026976;28;82019;-43
2024/03/04 13:42:10;;;;;;;;;;;10.90;89.40;;;;;;5001499;28;82703;-44
2024/03/04 13:44:36;;;;;;;;;;;10.90;89.40;;;;;;5012005;28;81223;-45
2024/03/04 13:47:01;;;;;;;;;;;10.90;89.30;;;;;;5005944;28;82200;-44
2024/03/04 13:49:27;;;;;;;;;;;10.90;89.20;;;;;;5023182;28;82496;-45
2024/03/04 13:51:52;;;;;;;;;;;11.00;89.10;;;;;;5005489;28;82923;-45
2024/03/04 13:54:18;;;;;;;;;;;10.90;89.00;;;;;;5011723;28;82658;-45
2024/03/04 13:56:43;;;;;;;;;;;11.00;89.20;;;;;;5013803;28;82129;-45
2024/03/04 13:59:11;;;;;;;;;;;11.00;89.20;;;;;;5014578;28;82044;-45
2024/03/04 14:01:37;;;;;;;;;;;11.00;89.00;;;;;;5020786;28;82789;-46
2024/03/04 14:04:03;;;;;;;;;;;11.00;88.90;;;;;;5007386;28;83602;-45
2024/03/04 14:06:29;;;;;;;;;;;11.00;89.00;;;;;;5004518;28;82727;-44
2024/03/04 14:08:54;;;;;;;;;;;11.00;89.00;;;;;;5007815;28;82625;-44
2024/03/04 14:11:23;;;;;;;;;;;11.10;89.00;;;;;;5014866;28;81938;-46
2024/03/04 14:13:48;;;;;;;;;;;11.10;89.00;;;;;;5008446;28;83046;-46
2024/03/04 14:16:15;;;;;;;;;;;11.10;89.00;;;;;;5012714;28;84589;-43
2024/03/04 14:18:41;;;;;;;;;;;11.10;89.00;;;;;;5007759;28;82274;-44
2024/03/04 14:21:07;;;;;;;;;;;11.20;89.00;;;;;;5006561;28;82329;-45
2024/03/04 14:23:33;;;;;;;;;;;11.10;88.70;;;;;;5012111;28;83603;-45